Terminal Aerodrome Forecast
Issued by NWS

Home | Current Version | Previous Version | Text Only | Print | Product List | Glossary On
Versions: 1 2 3 4 5 6 7 8 9 10 11 12 13 14 15 16 17 18 19 20 21 22
000
FTUS43 KMPX 200900 AAB
TAFAXN
TAF AMD
KAXN 200958Z 2010/2106 12003KT 5SM BR SCT003 SCT250
      TEMPO 2011/2012 2SM BR BKN010
     FM201300 14007KT P6SM SCT250
     FM210100 12010KT P6SM BKN070 PROB30 2101/2106 4SM TSRA
      OVC050CB=

USA.gov is the U.S. government's official web portal to all federal, state and local government web resources and services.